createdAt,value
2017-06-18T00:00:05.190Z,20.26
2017-06-18T00:01:01.435Z,20.26
2017-06-18T00:01:57.674Z,20.25
2017-06-18T00:02:53.955Z,20.24
2017-06-18T00:03:50.195Z,20.22
2017-06-18T00:04:46.434Z,20.23
2017-06-18T00:05:42.682Z,20.22
2017-06-18T00:06:39.214Z,20.23
2017-06-18T00:07:35.474Z,20.21
2017-06-18T00:08:31.714Z,20.20
2017-06-18T00:09:28.178Z,20.20
2017-06-18T00:10:24.414Z,20.19
2017-06-18T00:11:20.651Z,20.18
2017-06-18T00:12:16.903Z,20.18
2017-06-18T00:13:13.186Z,20.17
2017-06-18T00:14:09.438Z,20.18
2017-06-18T00:15:05.679Z,20.17
2017-06-18T00:16:01.932Z,20.17
2017-06-18T00:16:58.187Z,20.16
2017-06-18T00:17:54.474Z,20.16
2017-06-18T00:18:50.712Z,20.14
2017-06-18T00:19:46.955Z,20.14
2017-06-18T00:20:43.203Z,20.14
2017-06-18T00:21:39.430Z,20.13
2017-06-18T00:22:35.666Z,20.13
2017-06-18T00:23:31.936Z,20.13
2017-06-18T00:24:28.191Z,20.12
2017-06-18T00:25:24.422Z,20.12
2017-06-18T00:26:20.663Z,20.11
2017-06-18T00:27:16.906Z,20.11
2017-06-18T00:28:13.138Z,20.12
2017-06-18T00:29:09.394Z,20.11
2017-06-18T00:30:05.619Z,20.10
2017-06-18T00:31:01.858Z,20.10
2017-06-18T00:31:58.099Z,20.09
2017-06-18T00:32:54.347Z,20.08
2017-06-18T00:33:50.591Z,20.08
2017-06-18T00:34:46.846Z,20.09
2017-06-18T00:35:43.097Z,20.08
2017-06-18T00:36:39.339Z,20.07
2017-06-18T00:37:35.587Z,20.07
2017-06-18T00:38:31.835Z,20.07
2017-06-18T00:39:28.099Z,20.05
2017-06-18T00:40:24.342Z,20.06
2017-06-18T00:41:20.578Z,20.06
2017-06-18T00:42:16.806Z,20.06
2017-06-18T00:43:13.051Z,20.05
2017-06-18T00:44:09.329Z,20.05
2017-06-18T00:45:05.610Z,20.06
2017-06-18T00:46:01.863Z,20.04
2017-06-18T00:46:58.098Z,20.03
2017-06-18T00:47:54.344Z,20.04
2017-06-18T00:48:50.585Z,20.03
2017-06-18T00:49:46.839Z,20.04
2017-06-18T00:50:43.082Z,20.03
2017-06-18T00:51:39.311Z,20.03
2017-06-18T00:52:35.562Z,20.02
2017-06-18T00:53:31.795Z,20.02
2017-06-18T00:54:28.031Z,20.03
2017-06-18T00:55:24.295Z,20.03
2017-06-18T00:56:20.526Z,20.01
2017-06-18T00:57:16.768Z,20.02
2017-06-18T00:58:13.026Z,20.01
2017-06-18T00:59:09.287Z,20.01
2017-06-18T01:00:05.534Z,20.01
2017-06-18T01:01:01.798Z,20.00
2017-06-18T01:01:58.034Z,19.99
2017-06-18T01:02:54.275Z,19.99
2017-06-18T01:03:50.511Z,19.99
2017-06-18T01:04:46.770Z,19.98
2017-06-18T01:05:43.006Z,19.98
2017-06-18T01:06:39.255Z,19.98
2017-06-18T01:07:35.503Z,19.97
2017-06-18T01:08:31.746Z,19.97
2017-06-18T01:09:27.978Z,19.96
2017-06-18T01:10:24.206Z,19.96
2017-06-18T01:11:20.463Z,19.96
2017-06-18T01:12:16.697Z,19.95
2017-06-18T01:13:12.938Z,19.96
2017-06-18T01:14:09.207Z,19.96
2017-06-18T01:15:05.442Z,19.96
2017-06-18T01:16:01.687Z,19.95
2017-06-18T01:16:57.934Z,19.95
2017-06-18T01:17:54.171Z,19.93
2017-06-18T01:18:50.438Z,19.93
2017-06-18T01:19:46.690Z,19.94
2017-06-18T01:20:42.927Z,19.93
2017-06-18T01:21:39.202Z,19.93
2017-06-18T01:22:35.443Z,19.93
2017-06-18T01:23:31.683Z,19.92
2017-06-18T01:24:27.960Z,19.92
2017-06-18T01:25:24.213Z,19.92
2017-06-18T01:26:20.456Z,19.89
2017-06-18T01:27:16.734Z,19.90
2017-06-18T01:28:12.975Z,19.89
2017-06-18T01:29:09.298Z,19.89
2017-06-18T01:30:05.546Z,19.89
2017-06-18T01:31:01.803Z,19.88
2017-06-18T01:31:58.055Z,19.89
2017-06-18T01:32:54.306Z,19.88
2017-06-18T01:33:50.547Z,19.89
2017-06-18T01:34:46.784Z,19.87
2017-06-18T01:35:43.020Z,19.87
2017-06-18T01:36:39.250Z,19.87
2017-06-18T01:37:35.492Z,19.86
2017-06-18T01:38:31.751Z,19.86
2017-06-18T01:39:28.002Z,19.87
2017-06-18T01:40:24.234Z,19.87
2017-06-18T01:41:20.470Z,19.87
2017-06-18T01:42:16.707Z,19.86
2017-06-18T01:43:12.966Z,19.85
2017-06-18T01:44:09.210Z,19.86
2017-06-18T01:45:05.447Z,19.86
2017-06-18T01:46:01.682Z,19.86
2017-06-18T01:46:57.926Z,19.86
2017-06-18T01:47:54.199Z,19.85
2017-06-18T01:48:50.438Z,19.86
2017-06-18T01:49:46.679Z,19.85
2017-06-18T01:50:42.919Z,19.85
2017-06-18T01:51:39.166Z,19.85
2017-06-18T01:52:35.411Z,19.84
2017-06-18T01:53:31.671Z,19.84
2017-06-18T01:54:27.930Z,19.84
2017-06-18T01:55:24.175Z,19.85
2017-06-18T01:56:20.410Z,19.84
2017-06-18T01:57:16.648Z,19.85
2017-06-18T01:58:12.895Z,19.84
2017-06-18T01:59:09.158Z,19.83
2017-06-18T02:00:05.407Z,19.84
2017-06-18T02:01:01.668Z,19.83
2017-06-18T02:01:57.914Z,19.83
2017-06-18T02:02:54.153Z,19.82
2017-06-18T02:03:50.394Z,19.82
2017-06-18T02:04:46.656Z,19.83
2017-06-18T02:05:42.899Z,19.83
2017-06-18T02:06:39.138Z,19.83
2017-06-18T02:07:35.378Z,19.83
2017-06-18T02:08:31.631Z,19.83
2017-06-18T02:09:27.871Z,19.84
2017-06-18T02:10:24.191Z,19.83
2017-06-18T02:11:20.441Z,19.83
2017-06-18T02:12:16.675Z,19.85
2017-06-18T02:13:12.927Z,19.84
2017-06-18T02:14:09.158Z,19.85
2017-06-18T02:15:06.503Z,19.85
2017-06-18T02:16:02.770Z,19.85
2017-06-18T02:16:59.038Z,19.85
2017-06-18T02:17:55.291Z,19.85
2017-06-18T02:18:51.554Z,19.86
2017-06-18T02:19:47.799Z,19.85
2017-06-18T02:20:44.067Z,19.85
2017-06-18T02:21:40.303Z,19.86
2017-06-18T02:22:36.547Z,19.86
2017-06-18T02:23:32.790Z,19.86
2017-06-18T02:24:29.023Z,19.86
2017-06-18T02:25:25.282Z,19.86
2017-06-18T02:26:21.523Z,19.86
2017-06-18T02:27:17.763Z,19.86
2017-06-18T02:28:14.009Z,19.85
2017-06-18T02:29:10.264Z,19.86
2017-06-18T02:30:06.514Z,19.85
2017-06-18T02:31:02.807Z,19.85
2017-06-18T02:31:59.052Z,19.85
2017-06-18T02:32:55.287Z,19.84
2017-06-18T02:33:51.534Z,19.85
2017-06-18T02:34:47.782Z,19.85
2017-06-18T02:35:44.033Z,19.84
2017-06-18T02:36:40.312Z,19.85
2017-06-18T02:37:36.563Z,19.85
2017-06-18T02:38:32.802Z,19.84
2017-06-18T02:39:29.058Z,19.84
2017-06-18T02:40:25.303Z,19.85
2017-06-18T02:41:21.571Z,19.84
2017-06-18T02:42:17.841Z,19.84
2017-06-18T02:43:14.086Z,19.86
2017-06-18T02:44:10.331Z,19.85
2017-06-18T02:45:06.579Z,19.85
2017-06-18T02:46:02.835Z,19.85
2017-06-18T02:46:59.112Z,19.86
2017-06-18T02:47:55.356Z,19.85
2017-06-18T02:48:51.602Z,19.85
2017-06-18T02:49:47.862Z,19.86
2017-06-18T02:50:44.103Z,19.84
2017-06-18T02:51:40.360Z,19.84
2017-06-18T02:52:36.643Z,19.86
2017-06-18T02:53:32.886Z,19.85
2017-06-18T02:54:29.135Z,19.85
2017-06-18T02:55:25.374Z,19.85
2017-06-18T02:56:21.619Z,19.85
2017-06-18T02:57:17.875Z,19.85
2017-06-18T02:58:14.138Z,19.84
2017-06-18T02:59:10.371Z,19.85
2017-06-18T03:00:06.620Z,19.84
2017-06-18T03:01:02.867Z,19.83
2017-06-18T03:01:59.122Z,19.84
2017-06-18T03:02:55.363Z,19.84
2017-06-18T03:03:51.615Z,19.84
2017-06-18T03:04:47.862Z,19.84
2017-06-18T03:05:44.107Z,19.84
2017-06-18T03:06:40.405Z,19.84
2017-06-18T03:07:36.642Z,19.84
2017-06-18T03:08:32.914Z,19.84
2017-06-18T03:09:29.155Z,19.83
2017-06-18T03:10:25.414Z,19.83
2017-06-18T03:11:21.667Z,19.82
2017-06-18T03:12:17.919Z,19.80
2017-06-18T03:13:14.150Z,19.80
2017-06-18T03:14:10.406Z,19.79
2017-06-18T03:15:06.662Z,19.78
2017-06-18T03:16:02.911Z,19.78
2017-06-18T03:16:59.160Z,19.77
2017-06-18T03:17:55.400Z,19.77
2017-06-18T03:18:51.661Z,19.77
2017-06-18T03:19:47.951Z,19.75
2017-06-18T03:20:44.178Z,19.76
2017-06-18T03:21:45.142Z,19.74
2017-06-18T03:22:46.083Z,19.74
2017-06-18T03:23:47.023Z,19.75
2017-06-18T03:24:43.279Z,19.72
2017-06-18T03:25:39.519Z,19.69
2017-06-18T03:26:35.766Z,19.62
2017-06-18T03:27:32.035Z,19.56
2017-06-18T03:28:28.275Z,19.50
2017-06-18T03:29:24.551Z,19.45
2017-06-18T03:30:20.787Z,19.42
2017-06-18T03:31:17.047Z,19.37
2017-06-18T03:32:13.282Z,19.33
2017-06-18T03:33:09.527Z,19.30
2017-06-18T03:34:05.762Z,19.28
2017-06-18T03:35:02.050Z,19.25
2017-06-18T03:35:58.284Z,19.22
2017-06-18T03:36:54.526Z,19.20
2017-06-18T03:37:50.776Z,19.18
2017-06-18T03:38:47.015Z,19.16
2017-06-18T03:39:43.254Z,19.15
2017-06-18T03:40:39.503Z,19.12
2017-06-18T03:41:35.734Z,19.10
2017-06-18T03:42:32.030Z,19.09
2017-06-18T03:43:28.268Z,19.07
2017-06-18T03:44:24.527Z,19.06
2017-06-18T03:45:20.786Z,19.05
2017-06-18T03:46:17.027Z,19.05
2017-06-18T03:47:13.262Z,19.02
2017-06-18T03:48:09.502Z,19.02
2017-06-18T03:49:05.730Z,19.00
2017-06-18T03:50:01.986Z,19.01
2017-06-18T03:50:58.246Z,18.99
2017-06-18T03:51:54.487Z,18.98
2017-06-18T03:52:50.730Z,18.98
2017-06-18T03:53:46.970Z,18.97
2017-06-18T03:54:43.211Z,18.96
2017-06-18T03:55:39.451Z,18.95
2017-06-18T03:56:35.708Z,18.96
2017-06-18T03:57:31.947Z,18.94
2017-06-18T03:58:28.190Z,18.93
2017-06-18T03:59:24.429Z,18.93
2017-06-18T04:00:20.659Z,18.92
2017-06-18T04:01:16.922Z,18.92
2017-06-18T04:02:13.166Z,18.92
2017-06-18T04:03:09.406Z,18.91
2017-06-18T04:04:05.651Z,18.90
2017-06-18T04:05:01.890Z,18.89
2017-06-18T04:05:58.133Z,18.90
2017-06-18T04:06:54.387Z,18.88
2017-06-18T04:07:50.622Z,18.88
2017-06-18T04:08:46.879Z,18.89
2017-06-18T04:09:43.118Z,18.88
2017-06-18T04:10:39.355Z,18.88
2017-06-18T04:11:35.595Z,18.88
2017-06-18T04:12:31.854Z,18.87
2017-06-18T04:13:28.095Z,18.88
2017-06-18T04:14:24.346Z,18.88
2017-06-18T04:15:20.589Z,18.88
2017-06-18T04:16:16.836Z,18.89
2017-06-18T04:17:13.098Z,18.89
2017-06-18T04:18:09.329Z,18.88
2017-06-18T04:19:05.562Z,18.89
2017-06-18T04:20:01.801Z,18.87
2017-06-18T04:20:58.039Z,18.87
2017-06-18T04:21:54.283Z,18.88
2017-06-18T04:22:50.531Z,18.87
2017-06-18T04:23:46.794Z,18.88
2017-06-18T04:24:43.031Z,18.87
2017-06-18T04:25:39.294Z,18.88
2017-06-18T04:26:35.586Z,18.88
2017-06-18T04:27:31.884Z,18.88
2017-06-18T04:28:28.178Z,18.89
2017-06-18T04:29:24.479Z,18.89
2017-06-18T04:30:20.766Z,18.89
2017-06-18T04:31:17.007Z,18.91
2017-06-18T04:32:13.246Z,18.90
2017-06-18T04:33:09.490Z,18.91
2017-06-18T04:34:05.750Z,18.91
2017-06-18T04:35:01.988Z,18.91
2017-06-18T04:35:58.242Z,18.90
2017-06-18T04:36:54.527Z,18.91
2017-06-18T04:37:50.787Z,18.91
2017-06-18T04:38:47.043Z,18.93
2017-06-18T04:39:43.282Z,18.92
2017-06-18T04:40:39.523Z,18.93
2017-06-18T04:41:35.823Z,18.93
2017-06-18T04:42:32.059Z,18.93
2017-06-18T04:43:28.306Z,18.95
2017-06-18T04:44:24.580Z,18.95
2017-06-18T04:45:20.822Z,18.95
2017-06-18T04:46:17.099Z,18.96
2017-06-18T04:47:13.326Z,18.95
2017-06-18T04:48:09.566Z,18.97
2017-06-18T04:49:05.818Z,18.97
2017-06-18T04:50:02.087Z,18.98
2017-06-18T04:50:58.326Z,18.99
2017-06-18T04:51:54.576Z,18.99
2017-06-18T04:52:50.818Z,19.00
2017-06-18T04:53:47.071Z,19.00
2017-06-18T04:54:43.333Z,19.02
2017-06-18T04:55:39.571Z,19.03
2017-06-18T04:56:35.806Z,19.04
2017-06-18T04:57:32.042Z,19.04
2017-06-18T04:58:28.282Z,19.05
2017-06-18T04:59:24.538Z,19.06
2017-06-18T05:00:20.804Z,19.07
2017-06-18T05:01:17.034Z,19.08
2017-06-18T05:02:13.262Z,19.09
2017-06-18T05:03:09.494Z,19.10
2017-06-18T05:04:05.736Z,19.11
2017-06-18T05:05:01.993Z,19.12
2017-06-18T05:05:58.219Z,19.14
2017-06-18T05:06:54.491Z,19.15
2017-06-18T05:07:50.726Z,19.16
2017-06-18T05:08:46.950Z,19.16
2017-06-18T05:09:43.186Z,19.18
2017-06-18T05:10:39.426Z,19.18
2017-06-18T05:11:35.655Z,19.20
2017-06-18T05:12:31.897Z,19.21
2017-06-18T05:13:28.135Z,19.21
2017-06-18T05:14:24.359Z,19.23
2017-06-18T05:15:20.595Z,19.25
2017-06-18T05:16:16.838Z,19.25
2017-06-18T05:17:13.071Z,19.26
2017-06-18T05:18:09.315Z,19.27
2017-06-18T05:19:05.542Z,19.29
2017-06-18T05:20:01.790Z,19.29
2017-06-18T05:20:58.063Z,19.31
2017-06-18T05:21:54.300Z,19.31
2017-06-18T05:22:50.539Z,19.32
2017-06-18T05:23:46.762Z,19.33
2017-06-18T05:24:42.994Z,19.33
2017-06-18T05:25:39.250Z,19.34
2017-06-18T05:26:35.518Z,19.35
2017-06-18T05:27:31.790Z,19.37
2017-06-18T05:28:28.047Z,19.39
2017-06-18T05:29:24.274Z,19.40
2017-06-18T05:30:20.518Z,19.41
2017-06-18T05:31:16.762Z,19.44
2017-06-18T05:32:13.019Z,19.44
2017-06-18T05:33:09.247Z,19.46
2017-06-18T05:34:05.487Z,19.47
2017-06-18T05:35:01.727Z,19.49
2017-06-18T05:35:57.979Z,19.50
2017-06-18T05:36:54.231Z,19.52
2017-06-18T05:37:50.472Z,19.55
2017-06-18T05:38:46.745Z,19.56
2017-06-18T05:39:42.970Z,19.58
2017-06-18T05:40:39.210Z,19.61
2017-06-18T05:41:35.447Z,19.64
2017-06-18T05:42:31.702Z,19.64
2017-06-18T05:43:27.941Z,19.67
2017-06-18T05:44:24.167Z,19.69
2017-06-18T05:45:20.420Z,19.72
2017-06-18T05:46:16.670Z,19.73
2017-06-18T05:47:12.914Z,19.75
2017-06-18T05:48:09.159Z,19.78
2017-06-18T05:49:05.386Z,19.81
2017-06-18T05:50:01.630Z,19.84
2017-06-18T05:50:57.867Z,19.86
2017-06-18T05:51:54.107Z,19.89
2017-06-18T05:52:50.370Z,19.93
2017-06-18T05:53:46.599Z,19.95
2017-06-18T05:54:42.834Z,19.98
2017-06-18T05:55:39.078Z,20.01
2017-06-18T05:56:35.311Z,20.03
2017-06-18T05:57:31.595Z,20.05
2017-06-18T05:58:27.836Z,20.08
2017-06-18T05:59:24.088Z,20.10
2017-06-18T06:00:20.335Z,20.13
2017-06-18T06:01:16.577Z,20.14
2017-06-18T06:02:12.811Z,20.17
2017-06-18T06:03:09.066Z,20.18
2017-06-18T06:04:05.302Z,20.21
2017-06-18T06:05:01.542Z,20.22
2017-06-18T06:05:57.787Z,20.25
2017-06-18T06:06:54.031Z,20.29
2017-06-18T06:07:50.275Z,20.30
2017-06-18T06:08:46.514Z,20.32
2017-06-18T06:09:42.738Z,20.36
2017-06-18T06:10:38.970Z,20.37
2017-06-18T06:11:35.190Z,20.39
2017-06-18T06:12:31.414Z,20.41
2017-06-18T06:13:27.663Z,20.44
2017-06-18T06:14:23.903Z,20.45
2017-06-18T06:15:20.147Z,20.47
2017-06-18T06:16:16.391Z,20.50
2017-06-18T06:17:12.629Z,20.51
2017-06-18T06:18:08.879Z,20.52
2017-06-18T06:19:05.175Z,20.54
2017-06-18T06:20:01.415Z,20.54
2017-06-18T06:20:57.655Z,20.55
2017-06-18T06:21:53.894Z,20.58
2017-06-18T06:22:50.139Z,20.57
2017-06-18T06:23:46.386Z,20.60
2017-06-18T06:24:42.626Z,20.60
2017-06-18T06:25:38.846Z,20.59
2017-06-18T06:26:35.083Z,20.60
2017-06-18T06:27:31.307Z,20.60
2017-06-18T06:28:27.588Z,20.59
2017-06-18T06:29:23.818Z,20.59
2017-06-18T06:30:20.059Z,20.60
2017-06-18T06:31:16.311Z,20.59
2017-06-18T06:32:12.554Z,20.59
2017-06-18T06:33:08.798Z,20.59
2017-06-18T06:34:05.062Z,20.58
2017-06-18T06:35:01.306Z,20.57
2017-06-18T06:35:57.538Z,20.58
2017-06-18T06:36:53.766Z,20.59
2017-06-18T06:37:50.000Z,20.59
2017-06-18T06:38:46.246Z,20.59
2017-06-18T06:39:42.490Z,20.59
2017-06-18T06:40:38.730Z,20.60
2017-06-18T06:41:34.962Z,20.61
2017-06-18T06:42:31.225Z,20.63
2017-06-18T06:43:27.521Z,20.63
2017-06-18T06:44:23.771Z,20.64
2017-06-18T06:45:20.014Z,20.63
2017-06-18T06:46:16.255Z,20.64
2017-06-18T06:47:12.499Z,20.65
2017-06-18T06:48:08.734Z,20.66
2017-06-18T06:49:04.978Z,20.66
2017-06-18T06:50:01.210Z,20.67
2017-06-18T06:50:57.463Z,20.69
2017-06-18T06:51:53.704Z,20.70
2017-06-18T06:52:49.943Z,20.70
2017-06-18T06:53:46.172Z,20.72
2017-06-18T06:54:42.439Z,20.73
2017-06-18T06:55:38.674Z,20.75
2017-06-18T06:56:34.910Z,20.76
2017-06-18T06:57:31.146Z,20.77
2017-06-18T06:58:27.382Z,20.78
2017-06-18T06:59:23.643Z,20.79
2017-06-18T07:00:19.871Z,20.80
2017-06-18T07:01:16.119Z,20.80
2017-06-18T07:02:12.364Z,20.80
2017-06-18T07:03:08.607Z,20.81
2017-06-18T07:04:04.839Z,20.80
2017-06-18T07:05:01.090Z,20.82
2017-06-18T07:05:57.334Z,20.82
2017-06-18T07:06:53.571Z,20.82
2017-06-18T07:07:49.798Z,20.83
2017-06-18T07:08:46.046Z,20.85
2017-06-18T07:09:42.283Z,20.86
2017-06-18T07:10:38.546Z,20.89
2017-06-18T07:11:34.774Z,20.91
2017-06-18T07:12:31.010Z,20.93
2017-06-18T07:13:27.256Z,20.95
2017-06-18T07:14:23.494Z,20.99
2017-06-18T07:15:19.733Z,21.01
2017-06-18T07:16:15.980Z,21.03
2017-06-18T07:17:12.235Z,21.04
2017-06-18T07:18:08.550Z,21.07
2017-06-18T07:19:04.790Z,21.09
2017-06-18T07:20:01.032Z,21.11
2017-06-18T07:20:57.275Z,21.13
2017-06-18T07:21:53.522Z,21.15
2017-06-18T07:22:49.781Z,21.17
2017-06-18T07:23:46.041Z,21.19
2017-06-18T07:24:42.280Z,21.20
2017-06-18T07:25:38.514Z,21.20
2017-06-18T07:26:34.770Z,21.22
2017-06-18T07:27:31.011Z,21.23
2017-06-18T07:28:27.250Z,21.24
2017-06-18T07:29:23.483Z,21.26
2017-06-18T07:30:19.715Z,21.25
2017-06-18T07:31:15.950Z,21.27
2017-06-18T07:32:12.206Z,21.27
2017-06-18T07:33:08.439Z,21.27
2017-06-18T07:34:04.682Z,21.27
2017-06-18T07:35:00.923Z,21.29
2017-06-18T07:35:57.193Z,21.26
2017-06-18T07:36:53.411Z,21.28
2017-06-18T07:37:49.656Z,21.28
2017-06-18T07:38:45.906Z,21.28
2017-06-18T07:39:42.150Z,21.28
2017-06-18T07:40:38.382Z,21.27
2017-06-18T07:41:34.613Z,21.28
2017-06-18T07:42:30.839Z,21.28
2017-06-18T07:43:27.114Z,21.28
2017-06-18T07:44:23.347Z,21.30
2017-06-18T07:45:19.586Z,21.31
2017-06-18T07:46:18.588Z,21.31
2017-06-18T07:47:15.258Z,21.33
2017-06-18T07:48:11.531Z,21.33
2017-06-18T07:49:07.774Z,21.34
2017-06-18T07:50:04.022Z,21.35
2017-06-18T07:51:00.287Z,21.37
2017-06-18T07:51:56.538Z,21.37
2017-06-18T07:52:52.789Z,21.39
2017-06-18T07:53:49.067Z,21.41
2017-06-18T07:54:45.310Z,21.42
2017-06-18T07:55:41.582Z,21.44
2017-06-18T07:56:37.838Z,21.45
2017-06-18T07:57:34.074Z,21.47
2017-06-18T07:58:30.358Z,21.47
2017-06-18T07:59:26.626Z,21.49
2017-06-18T08:00:22.858Z,21.50
2017-06-18T08:01:19.090Z,21.52
2017-06-18T08:02:15.337Z,21.53
2017-06-18T08:03:11.586Z,21.54
2017-06-18T08:04:07.842Z,21.55
2017-06-18T08:05:05.010Z,21.58
2017-06-18T08:06:01.251Z,21.59
2017-06-18T08:06:57.499Z,21.60
2017-06-18T08:07:53.759Z,21.61
2017-06-18T08:08:49.998Z,21.63
2017-06-18T08:09:46.255Z,21.64
2017-06-18T08:10:42.507Z,21.66
2017-06-18T08:11:38.758Z,21.68
2017-06-18T08:12:34.995Z,21.70
2017-06-18T08:13:31.227Z,21.72
2017-06-18T08:14:27.470Z,21.73
2017-06-18T08:15:23.722Z,21.74
2017-06-18T08:16:19.970Z,21.77
2017-06-18T08:17:16.235Z,21.78
2017-06-18T08:18:12.447Z,21.81
2017-06-18T08:19:08.688Z,21.84
2017-06-18T08:20:04.975Z,21.86
2017-06-18T08:21:01.219Z,21.88
2017-06-18T08:21:57.458Z,21.92
2017-06-18T08:22:53.703Z,21.94
2017-06-18T08:23:49.947Z,21.96
2017-06-18T08:24:46.198Z,21.98
2017-06-18T08:25:42.462Z,21.99
2017-06-18T08:26:38.718Z,22.00
2017-06-18T08:27:34.960Z,22.02
2017-06-18T08:28:31.202Z,22.03
2017-06-18T08:29:27.460Z,22.03
2017-06-18T08:30:23.730Z,22.04
2017-06-18T08:31:19.989Z,22.05
2017-06-18T08:32:16.226Z,22.08
2017-06-18T08:33:12.470Z,22.10
2017-06-18T08:34:08.712Z,22.12
2017-06-18T08:35:04.960Z,22.15
2017-06-18T08:36:01.231Z,22.16
2017-06-18T08:36:57.479Z,22.18
2017-06-18T08:37:53.719Z,22.20
2017-06-18T08:38:49.954Z,22.21
2017-06-18T08:39:46.242Z,22.22
2017-06-18T08:40:42.539Z,22.24
2017-06-18T08:41:38.806Z,22.26
2017-06-18T08:42:35.063Z,22.28
2017-06-18T08:43:31.329Z,22.30
2017-06-18T08:44:27.586Z,22.33
2017-06-18T08:45:23.814Z,22.35
2017-06-18T08:46:20.054Z,22.39
2017-06-18T08:47:16.312Z,22.42
2017-06-18T08:48:12.562Z,22.47
2017-06-18T08:49:08.807Z,22.50
2017-06-18T08:50:05.074Z,22.55
2017-06-18T08:51:01.310Z,22.59
2017-06-18T08:51:57.571Z,22.64
2017-06-18T08:52:53.811Z,22.69
2017-06-18T08:53:50.050Z,22.74
2017-06-18T08:54:46.298Z,22.81
2017-06-18T08:55:42.539Z,22.87
2017-06-18T08:56:38.782Z,22.93
2017-06-18T08:57:35.045Z,22.98
2017-06-18T08:58:31.292Z,23.04
2017-06-18T08:59:27.538Z,23.11
2017-06-18T09:00:23.779Z,23.17
2017-06-18T09:01:20.034Z,23.21
2017-06-18T09:02:16.291Z,23.28
2017-06-18T09:03:12.549Z,23.31
2017-06-18T09:04:08.791Z,23.34
2017-06-18T09:05:05.046Z,23.38
2017-06-18T09:06:01.291Z,23.41
2017-06-18T09:06:57.539Z,23.47
2017-06-18T09:07:53.799Z,23.56
2017-06-18T09:08:50.434Z,23.65
2017-06-18T09:09:46.675Z,23.77
2017-06-18T09:10:42.924Z,23.93
2017-06-18T09:11:39.167Z,24.07
2017-06-18T09:12:35.414Z,24.24
2017-06-18T09:13:31.667Z,24.38
2017-06-18T09:14:27.916Z,24.54
2017-06-18T09:15:24.162Z,24.70
2017-06-18T09:16:20.415Z,24.83
2017-06-18T09:17:16.655Z,24.94
2017-06-18T09:18:12.914Z,25.03
2017-06-18T09:19:09.170Z,25.09
2017-06-18T09:20:05.410Z,25.15
2017-06-18T09:21:01.670Z,25.19
2017-06-18T09:21:57.914Z,25.22
2017-06-18T09:22:54.159Z,25.30
2017-06-18T09:23:50.410Z,25.37
2017-06-18T09:24:46.642Z,25.48
2017-06-18T09:25:42.900Z,25.60
2017-06-18T09:26:39.182Z,25.73
2017-06-18T09:27:35.438Z,25.87
2017-06-18T09:28:31.688Z,26.02
2017-06-18T09:29:27.938Z,26.17
2017-06-18T09:30:24.174Z,26.34
2017-06-18T09:31:20.423Z,26.48
2017-06-18T09:32:16.680Z,26.64
2017-06-18T09:33:12.934Z,26.77
2017-06-18T09:34:09.196Z,26.87
2017-06-18T09:35:05.426Z,26.97
2017-06-18T09:36:01.707Z,27.07
2017-06-18T09:36:57.987Z,27.15
2017-06-18T09:37:54.226Z,27.21
2017-06-18T09:38:50.482Z,27.24
2017-06-18T09:39:46.760Z,27.24
2017-06-18T09:40:43.063Z,27.22
2017-06-18T09:41:39.326Z,27.21
2017-06-18T09:42:35.582Z,27.19
2017-06-18T09:43:31.869Z,27.17
2017-06-18T09:44:28.134Z,27.10
2017-06-18T09:45:24.383Z,27.03
2017-06-18T09:46:20.630Z,26.98
2017-06-18T09:47:16.911Z,26.91
2017-06-18T09:48:13.194Z,26.87
2017-06-18T09:49:09.426Z,26.85
2017-06-18T09:50:05.698Z,26.87
2017-06-18T09:51:01.951Z,26.91
2017-06-18T09:51:58.205Z,26.99
2017-06-18T09:52:54.899Z,27.07
2017-06-18T09:53:51.151Z,27.16
2017-06-18T09:54:47.389Z,27.25
2017-06-18T09:55:43.646Z,27.35
2017-06-18T09:56:39.902Z,27.46
2017-06-18T09:57:36.145Z,27.57
2017-06-18T09:58:32.383Z,27.69
2017-06-18T09:59:28.646Z,27.81
2017-06-18T10:00:24.902Z,27.94
2017-06-18T10:01:21.186Z,28.07
2017-06-18T10:02:17.457Z,28.15
2017-06-18T10:03:13.694Z,28.19
2017-06-18T10:04:10.139Z,28.21
2017-06-18T10:05:06.620Z,28.21
2017-06-18T10:06:02.886Z,28.18
2017-06-18T10:06:59.143Z,28.17
2017-06-18T10:07:55.399Z,28.17
2017-06-18T10:08:51.651Z,28.18
2017-06-18T10:09:47.895Z,28.19
2017-06-18T10:10:44.133Z,28.20
2017-06-18T10:11:40.523Z,28.16
2017-06-18T10:12:36.794Z,28.13
2017-06-18T10:13:33.045Z,28.08
2017-06-18T10:14:29.274Z,28.06
2017-06-18T10:15:25.517Z,28.02
2017-06-18T10:16:21.791Z,28.00
2017-06-18T10:17:18.252Z,27.95
2017-06-18T10:18:14.494Z,27.93
2017-06-18T10:19:10.747Z,27.92
2017-06-18T10:20:06.995Z,27.93
2017-06-18T10:21:03.238Z,27.97
2017-06-18T10:22:04.183Z,28.01
2017-06-18T10:23:05.118Z,28.04
2017-06-18T10:24:06.056Z,28.08
2017-06-18T10:25:02.286Z,28.11
2017-06-18T10:25:58.534Z,28.15
2017-06-18T10:26:54.799Z,28.16
2017-06-18T10:27:51.058Z,28.17
2017-06-18T10:28:47.291Z,28.17
2017-06-18T10:29:43.532Z,28.16
2017-06-18T10:30:39.778Z,28.15
2017-06-18T10:31:36.018Z,28.11
2017-06-18T10:32:32.358Z,28.07
2017-06-18T10:33:28.606Z,28.04
2017-06-18T10:34:24.851Z,28.16
2017-06-18T10:35:21.115Z,28.48
2017-06-18T10:36:17.411Z,28.76
2017-06-18T10:37:13.711Z,28.97
2017-06-18T10:38:09.955Z,29.15
2017-06-18T10:39:06.215Z,29.31
2017-06-18T10:40:02.495Z,29.45
2017-06-18T10:40:58.727Z,29.60
2017-06-18T10:41:54.978Z,29.74
2017-06-18T10:42:51.259Z,29.86
2017-06-18T10:43:47.486Z,29.95
2017-06-18T10:44:43.723Z,30.04
2017-06-18T10:45:39.978Z,30.10
2017-06-18T10:46:36.222Z,30.17
2017-06-18T10:47:32.476Z,30.24
2017-06-18T10:48:28.742Z,30.31
2017-06-18T10:49:24.974Z,30.37
2017-06-18T10:50:21.214Z,30.40
2017-06-18T10:51:17.474Z,30.44
2017-06-18T10:52:13.714Z,30.51
2017-06-18T10:53:09.990Z,30.57
2017-06-18T10:54:07.095Z,30.62
2017-06-18T10:55:03.323Z,30.69
2017-06-18T10:55:59.567Z,30.77
2017-06-18T10:56:55.810Z,30.82
2017-06-18T10:57:52.062Z,30.89
2017-06-18T10:58:48.343Z,30.97
2017-06-18T10:59:44.598Z,31.05
2017-06-18T11:00:40.853Z,31.14
2017-06-18T11:01:37.094Z,31.21
2017-06-18T11:02:33.350Z,31.28
2017-06-18T11:03:29.594Z,31.37
2017-06-18T11:04:25.858Z,31.42
2017-06-18T11:05:22.106Z,31.45
2017-06-18T11:06:18.354Z,31.46
2017-06-18T11:07:14.598Z,31.48
2017-06-18T11:08:10.843Z,31.51
2017-06-18T11:09:07.130Z,31.54
2017-06-18T11:10:03.374Z,31.54
2017-06-18T11:10:59.619Z,31.51
2017-06-18T11:11:55.859Z,31.49
2017-06-18T11:12:52.118Z,31.46
2017-06-18T11:13:48.378Z,31.43
2017-06-18T11:14:44.644Z,31.43
2017-06-18T11:15:40.919Z,31.45
2017-06-18T11:16:37.158Z,31.52
2017-06-18T11:17:33.394Z,31.55
2017-06-18T11:18:29.635Z,31.59
2017-06-18T11:19:25.866Z,31.59
2017-06-18T11:20:22.146Z,31.54
2017-06-18T11:21:18.378Z,31.49
2017-06-18T11:22:14.619Z,31.40
2017-06-18T11:23:10.863Z,31.28
2017-06-18T11:24:07.126Z,31.20
2017-06-18T11:25:03.374Z,31.08
2017-06-18T11:25:59.627Z,30.98
2017-06-18T11:26:55.874Z,30.86
2017-06-18T11:27:52.114Z,30.77
2017-06-18T11:28:48.355Z,30.69
2017-06-18T11:29:44.611Z,30.64
2017-06-18T11:30:40.890Z,30.62
2017-06-18T11:31:37.147Z,30.63
2017-06-18T11:32:33.391Z,30.63
2017-06-18T11:33:29.639Z,30.62
2017-06-18T11:34:25.903Z,30.62
2017-06-18T11:35:22.146Z,30.62
2017-06-18T11:36:18.422Z,30.62
2017-06-18T11:37:14.668Z,30.62
2017-06-18T11:38:10.915Z,30.64
2017-06-18T11:39:07.166Z,30.67
2017-06-18T11:40:03.411Z,30.70
2017-06-18T11:40:59.679Z,30.73
2017-06-18T11:41:55.928Z,30.76
2017-06-18T11:42:52.166Z,30.79
2017-06-18T11:43:48.411Z,30.85
2017-06-18T11:44:44.654Z,30.90
2017-06-18T11:45:40.946Z,30.98
2017-06-18T11:46:37.218Z,31.00
2017-06-18T11:47:33.462Z,31.05
2017-06-18T11:48:29.706Z,31.08
2017-06-18T11:49:25.950Z,31.10
2017-06-18T11:50:22.195Z,31.09
2017-06-18T11:51:18.452Z,31.06
2017-06-18T11:52:14.692Z,30.99
2017-06-18T11:53:10.923Z,30.92
2017-06-18T11:54:07.167Z,30.87
2017-06-18T11:55:03.794Z,30.82
2017-06-18T11:56:00.059Z,30.79
2017-06-18T11:56:56.330Z,30.80
2017-06-18T11:57:52.563Z,30.80
2017-06-18T11:58:48.821Z,30.83
2017-06-18T11:59:45.054Z,30.86
2017-06-18T12:00:41.282Z,30.88
2017-06-18T12:01:37.526Z,30.90
2017-06-18T12:02:33.782Z,30.92
2017-06-18T12:03:30.022Z,30.94
2017-06-18T12:04:26.251Z,30.93